createdAt,value
2023-05-14T00:04:52.706Z,79.45
2023-05-14T00:09:54.666Z,79.99
2023-05-14T00:14:56.908Z,80.27
2023-05-14T00:20:00.816Z,80.33
2023-05-14T00:25:03.235Z,80.53
2023-05-14T00:30:07.025Z,80.40
2023-05-14T00:35:09.389Z,80.50
2023-05-14T00:40:13.119Z,80.36
2023-05-14T00:45:15.150Z,81.07
2023-05-14T00:50:18.612Z,81.39
2023-05-14T00:55:22.549Z,81.08
2023-05-14T01:05:14.133Z,80.81
2023-05-14T01:10:25.568Z,81.35
2023-05-14T01:15:31.681Z,80.99
2023-05-14T01:20:33.598Z,80.74
2023-05-14T01:25:35.989Z,80.88
2023-05-14T01:30:46.333Z,80.70
2023-05-14T01:35:49.842Z,80.80
2023-05-14T01:41:03.442Z,80.54
2023-05-14T01:46:05.707Z,80.22
2023-05-14T01:51:07.605Z,82.02
2023-05-14T01:56:11.916Z,80.43
2023-05-14T02:01:13.982Z,80.49
2023-05-14T02:06:16.136Z,80.60
2023-05-14T02:11:20.293Z,80.59
2023-05-14T02:21:27.110Z,80.68
2023-05-14T02:27:27.987Z,80.47
2023-05-14T02:32:30.820Z,80.83
2023-05-14T02:37:34.782Z,80.98
2023-05-14T02:46:26.451Z,80.63
2023-05-14T02:52:37.040Z,80.83
2023-05-14T02:57:38.902Z,82.29
2023-05-14T03:02:42.142Z,80.66
2023-05-14T03:07:47.568Z,80.90
2023-05-14T03:12:49.906Z,81.06
2023-05-14T03:17:52.302Z,80.90
2023-05-14T03:22:54.761Z,80.36
2023-05-14T03:27:57.034Z,80.21
2023-05-14T03:32:59.686Z,80.29
2023-05-14T03:38:01.881Z,80.14
2023-05-14T03:43:03.810Z,81.29
2023-05-14T03:48:06.281Z,80.06
2023-05-14T03:53:09.912Z,80.44
2023-05-14T03:58:14.208Z,81.57
2023-05-14T04:03:48.986Z,79.85
2023-05-14T04:08:55.761Z,79.92
2023-05-14T04:16:20.008Z,80.02
2023-05-14T04:22:00.808Z,80.14
2023-05-14T04:27:43.563Z,80.12
2023-05-14T04:33:26.265Z,79.99
2023-05-14T04:48:09.062Z,78.95
2023-05-14T04:53:11.450Z,79.06
2023-05-14T04:58:13.439Z,78.33
2023-05-14T05:03:24.523Z,78.52
2023-05-14T05:08:26.770Z,78.00
2023-05-14T05:13:28.838Z,77.83
2023-05-14T05:18:30.824Z,77.25
2023-05-14T05:23:32.883Z,77.15
2023-05-14T05:28:34.797Z,76.91
2023-05-14T05:38:08.003Z,75.98
2023-05-14T05:43:09.974Z,75.57
2023-05-14T05:48:12.150Z,75.17
2023-05-14T05:53:16.584Z,74.58
2023-05-14T05:58:19.823Z,74.26
2023-05-14T06:03:22.334Z,74.14
2023-05-14T06:08:24.374Z,73.89
2023-05-14T06:13:26.498Z,73.39
2023-05-14T06:18:28.331Z,72.70
2023-05-14T06:23:30.614Z,72.38
2023-05-14T06:28:32.704Z,71.80
2023-05-14T06:33:34.687Z,71.43
2023-05-14T06:38:36.641Z,68.48
2023-05-14T06:43:38.749Z,69.61
2023-05-14T06:48:40.926Z,68.69
2023-05-14T06:53:42.924Z,65.49
2023-05-14T06:58:45.057Z,66.61
2023-05-14T07:03:46.994Z,61.95
2023-05-14T07:08:49.033Z,64.24
2023-05-14T07:13:50.910Z,60.32
2023-05-14T07:20:42.887Z,62.27
2023-05-14T07:25:46.880Z,57.79
2023-05-14T07:30:52.394Z,60.71
2023-05-14T07:35:54.495Z,59.89
2023-05-14T07:40:56.675Z,59.78
2023-05-14T07:46:00.909Z,58.13
2023-05-14T07:51:04.243Z,58.50
2023-05-14T07:56:06.778Z,58.71
2023-05-14T08:01:09.261Z,58.40
2023-05-14T08:06:11.735Z,58.08
2023-05-14T08:11:13.944Z,58.32
2023-05-14T08:16:16.241Z,57.92
2023-05-14T08:21:18.600Z,57.51
2023-05-14T08:26:21.688Z,57.45
2023-05-14T08:31:23.947Z,56.66
2023-05-14T08:36:26.224Z,56.07
2023-05-14T08:41:29.702Z,55.40
2023-05-14T08:46:32.572Z,54.96
2023-05-14T08:51:35.508Z,54.11
2023-05-14T08:56:38.966Z,54.40
2023-05-14T09:01:47.831Z,53.53
2023-05-14T09:06:51.597Z,53.24
2023-05-14T09:11:54.275Z,52.12
2023-05-14T09:20:39.302Z,51.62
2023-05-14T10:02:37.952Z,47.71
2023-05-14T10:07:44.688Z,49.13
2023-05-14T10:12:53.355Z,48.62
2023-05-14T10:18:08.111Z,48.72
2023-05-14T10:23:10.755Z,50.09
2023-05-14T10:28:12.879Z,50.98
2023-05-14T10:33:16.814Z,51.33
2023-05-14T10:38:30.536Z,51.39
2023-05-14T10:43:41.520Z,51.60
2023-05-14T10:48:44.614Z,51.78
2023-05-14T10:53:47.814Z,52.15
2023-05-14T10:58:50.121Z,52.00
2023-05-14T11:03:58.666Z,51.80
2023-05-14T11:09:06.022Z,50.74
2023-05-14T11:14:09.599Z,50.95
2023-05-14T11:20:41.064Z,50.53
2023-05-14T11:25:43.208Z,50.86
2023-05-14T11:30:46.556Z,51.53
2023-05-14T11:36:03.321Z,51.90
2023-05-14T11:41:05.861Z,53.16
2023-05-14T11:46:08.236Z,54.08
2023-05-14T11:51:10.372Z,54.81
2023-05-14T11:56:12.597Z,55.17
2023-05-14T12:01:15.962Z,54.84
2023-05-14T12:06:18.363Z,52.89
2023-05-14T12:11:21.362Z,54.21
2023-05-14T12:16:23.525Z,52.53
2023-05-14T12:21:29.203Z,53.08
2023-05-14T12:26:34.252Z,51.48
2023-05-14T12:31:36.804Z,52.21
2023-05-14T12:36:39.029Z,52.59
2023-05-14T12:41:41.312Z,52.15
2023-05-14T12:46:43.459Z,52.06
2023-05-14T12:51:47.018Z,52.66
2023-05-14T12:56:49.221Z,52.67
2023-05-14T13:01:51.369Z,52.08
2023-05-14T13:06:53.681Z,52.84
2023-05-14T13:11:55.881Z,52.89
2023-05-14T13:16:57.969Z,53.88
2023-05-14T13:21:59.985Z,54.62
2023-05-14T13:27:02.512Z,54.85
2023-05-14T13:32:13.143Z,54.77
2023-05-14T13:37:15.035Z,56.00
2023-05-14T13:42:16.989Z,58.61
2023-05-14T13:47:19.148Z,57.94
2023-05-14T13:52:21.853Z,58.55
2023-05-14T13:57:23.751Z,59.10
2023-05-14T14:02:26.051Z,62.98
2023-05-14T14:07:28.033Z,64.72
2023-05-14T14:12:30.192Z,65.34
2023-05-14T14:17:34.078Z,68.11
2023-05-14T14:22:36.722Z,69.46
2023-05-14T14:27:39.565Z,68.36
2023-05-14T14:32:51.329Z,68.73
2023-05-14T14:37:55.924Z,67.39
2023-05-14T14:43:04.178Z,66.60
2023-05-14T14:48:28.868Z,67.24
2023-05-14T14:53:31.270Z,65.72
2023-05-14T14:58:33.396Z,65.45
2023-05-14T15:03:35.597Z,63.90
2023-05-14T15:08:37.841Z,62.57
2023-05-14T15:13:41.883Z,61.63
2023-05-14T15:18:44.052Z,60.21
2023-05-14T15:23:47.500Z,58.36
2023-05-14T15:28:49.618Z,57.52
2023-05-14T15:33:54.123Z,57.92
2023-05-14T15:38:56.286Z,56.80
2023-05-14T15:43:58.688Z,55.51
2023-05-14T15:49:00.865Z,57.22
2023-05-14T15:54:03.112Z,58.06
2023-05-14T15:59:05.397Z,57.91
2023-05-14T16:04:07.442Z,58.48
2023-05-14T16:09:09.544Z,58.48
2023-05-14T16:14:12.036Z,57.91
2023-05-14T16:19:14.168Z,58.41
2023-05-14T16:24:18.437Z,59.11
2023-05-14T16:29:20.551Z,60.01
2023-05-14T16:34:22.711Z,60.46
2023-05-14T16:39:24.744Z,61.31
2023-05-14T16:44:26.838Z,63.05
2023-05-14T16:49:28.922Z,64.68
2023-05-14T16:54:37.940Z,67.40
2023-05-14T16:59:41.630Z,68.15
2023-05-14T17:04:45.471Z,68.08
2023-05-14T17:09:47.596Z,68.09
2023-05-14T17:14:49.626Z,68.98
2023-05-14T17:19:52.055Z,69.84
2023-05-14T17:24:54.416Z,69.83
2023-05-14T17:29:57.590Z,71.08
2023-05-14T17:35:02.848Z,71.01
2023-05-14T17:40:05.663Z,71.32
2023-05-14T17:45:11.072Z,71.00
2023-05-14T17:50:13.193Z,70.28
2023-05-14T17:55:17.478Z,69.70
2023-05-14T18:00:19.680Z,69.25
2023-05-14T18:05:21.962Z,69.88
2023-05-14T18:10:25.165Z,69.95
2023-05-14T18:15:27.550Z,70.40
2023-05-14T18:20:29.797Z,69.76
2023-05-14T18:25:32.033Z,69.97
2023-05-14T18:30:34.296Z,69.82
2023-05-14T18:35:36.550Z,69.85
2023-05-14T18:40:38.804Z,69.05
2023-05-14T18:45:41.138Z,68.79
2023-05-14T18:50:43.340Z,69.22
2023-05-14T18:55:45.751Z,69.41
2023-05-14T19:00:48.272Z,69.63
2023-05-14T19:05:53.453Z,70.23
2023-05-14T19:10:55.525Z,69.61
2023-05-14T19:20:39.939Z,70.05
2023-05-14T19:26:07.120Z,70.57
2023-05-14T19:31:09.346Z,70.42
2023-05-14T19:36:11.319Z,69.12
2023-05-14T19:41:13.864Z,68.78
2023-05-14T19:46:16.115Z,69.17
2023-05-14T19:51:18.195Z,69.77
2023-05-14T19:56:20.288Z,69.78
2023-05-14T20:01:23.691Z,70.33
2023-05-14T20:06:26.006Z,70.81
2023-05-14T20:11:28.088Z,70.91
2023-05-14T20:16:30.799Z,71.41
2023-05-14T20:21:32.936Z,71.64
2023-05-14T20:26:35.246Z,71.48
2023-05-14T20:31:37.341Z,70.88
2023-05-14T20:36:40.126Z,70.95
2023-05-14T20:41:42.475Z,71.24
2023-05-14T20:46:51.769Z,71.40
2023-05-14T20:51:54.199Z,71.57
2023-05-14T20:56:56.650Z,71.98
2023-05-14T21:01:58.918Z,72.15
2023-05-14T21:07:01.468Z,72.58
2023-05-14T21:12:05.786Z,73.08
2023-05-14T21:17:12.438Z,72.53
2023-05-14T21:22:14.615Z,72.46
2023-05-14T21:27:17.244Z,72.93
2023-05-14T21:32:20.334Z,73.29
2023-05-14T21:37:22.586Z,73.92
2023-05-14T21:42:24.695Z,74.03
2023-05-14T21:47:27.334Z,73.98
2023-05-14T21:52:33.131Z,74.11
2023-05-14T21:57:37.920Z,74.61
2023-05-14T22:02:40.171Z,74.74
2023-05-14T22:07:42.524Z,75.12
2023-05-14T22:12:45.848Z,75.17
2023-05-14T22:17:48.218Z,75.89
2023-05-14T22:22:52.017Z,75.76
2023-05-14T22:28:03.262Z,76.34
2023-05-14T22:33:05.588Z,76.60
2023-05-14T22:38:10.540Z,76.39
2023-05-14T22:43:15.739Z,76.81
2023-05-14T22:48:18.299Z,76.74
2023-05-14T22:53:35.963Z,76.86
2023-05-14T22:58:41.013Z,75.72
2023-05-14T23:03:43.047Z,75.61
2023-05-14T23:08:45.032Z,75.68
2023-05-14T23:13:47.235Z,76.17
2023-05-14T23:20:44.404Z,76.52
2023-05-14T23:25:46.513Z,76.63
2023-05-14T23:30:48.710Z,77.08
2023-05-14T23:35:52.214Z,76.73
2023-05-14T23:40:54.155Z,76.67
2023-05-14T23:45:59.384Z,76.95
2023-05-14T23:51:01.676Z,77.38
2023-05-14T23:56:04.095Z,76.76
